Time;durP1;ratioP1;P1;durP2;ratioP2;P2;SDS_P1;SDS_P2;PMS_P1;PMS_P2;Temp;Humidity;BMP_temperature;BMP_pressure;BME280_temperature;BME280_humidity;BME280_pressure;Samples;Min_cycle;Max_cycle;Signal;HPM_P1;HPM_P2
2023/05/30 00:00:25;;;;;;;26.30;23.25;;;;;;;18.74;64.90;98567.09;5094175;28;20034;-44
2023/05/30 00:02:51;;;;;;;31.83;28.20;;;;;;;18.72;64.85;98561.22;5112217;28;20554;-44
2023/05/30 00:05:17;;;;;;;29.17;26.40;;;;;;;18.82;65.00;98552.53;5093879;28;20032;-45
2023/05/30 00:07:43;;;;;;;19.25;15.45;;;;;;;18.86;64.61;98562.41;5112209;28;20054;-44
2023/05/30 00:10:09;;;;;;;64.47;57.83;;;;;;;18.79;64.46;98560.97;5112219;28;20056;-44
2023/05/30 00:12:35;;;;;;;88.50;80.38;;;;;;;18.55;65.36;98553.38;5112095;28;20034;-44
2023/05/30 00:15:02;;;;;;;73.13;67.38;;;;;;;18.46;65.74;98555.72;5093910;28;20396;-44
2023/05/30 00:17:28;;;;;;;29.50;27.17;;;;;;;18.40;65.81;98562.06;5112088;28;20505;-44
2023/05/30 00:19:54;;;;;;;36.95;31.92;;;;;;;18.20;66.52;98556.59;5112024;28;20054;-44
2023/05/30 00:22:23;;;;;;;25.48;22.88;;;;;;;18.26;66.50;98555.56;5093796;28;20028;-44
2023/05/30 00:24:51;;;;;;;24.08;18.98;;;;;;;18.27;66.52;98552.66;5112052;28;20053;-44
2023/05/30 00:27:17;;;;;;;22.80;19.88;;;;;;;18.19;67.09;98555.78;5112011;28;20015;-45
2023/05/30 00:29:45;;;;;;;68.93;61.80;;;;;;;18.13;66.77;98551.50;5093709;28;20035;-44
2023/05/30 00:32:11;;;;;;;29.08;25.85;;;;;;;18.09;66.99;98551.19;5113743;28;20036;-44
2023/05/30 00:34:37;;;;;;;73.15;67.00;;;;;;;18.04;66.96;98548.47;5116021;28;20027;-44
2023/05/30 00:37:05;;;;;;;16.58;14.80;;;;;;;17.98;67.50;98552.16;5116078;28;20031;-44
2023/05/30 00:39:31;;;;;;;50.75;45.88;;;;;;;18.13;67.68;98549.63;5116224;28;20036;-44
2023/05/30 00:41:57;;;;;;;19.35;17.30;;;;;;;18.16;66.85;98548.31;5115856;28;20118;-44
2023/05/30 00:44:23;;;;;;;19.73;17.83;;;;;;;18.10;67.21;98552.00;5097545;28;20149;-44
2023/05/30 00:46:52;;;;;;;51.45;46.13;;;;;;;18.11;67.65;98557.06;5097423;28;20027;-44
2023/05/30 00:49:18;;;;;;;49.63;44.67;;;;;;;18.19;66.78;98562.94;5097426;28;20034;-44
2023/05/30 00:51:44;;;;;;;73.80;67.47;;;;;;;18.13;66.87;98556.81;5097265;28;20024;-44
2023/05/30 00:54:10;;;;;;;111.05;101.40;;;;;;;18.10;66.57;98559.94;5097413;28;20016;-44
2023/05/30 00:56:37;;;;;;;284.98;262.02;;;;;;;17.94;67.87;98557.16;5115618;28;20057;-44
2023/05/30 00:59:03;;;;;;;233.38;213.95;;;;;;;17.81;67.58;98560.19;5115622;28;20023;-44
2023/05/30 01:01:31;;;;;;;105.20;96.22;;;;;;;17.74;68.34;98555.06;5097221;28;20028;-44
2023/05/30 01:03:58;;;;;;;130.63;97.50;;;;;;;17.74;68.14;98556.94;5115476;28;20016;-44
2023/05/30 01:06:27;;;;;;;161.10;147.10;;;;;;;17.88;67.67;98560.81;5115460;28;20111;-44
2023/05/30 01:08:53;;;;;;;162.10;148.63;;;;;;;17.82;67.20;98567.09;5115473;28;20015;-45
2023/05/30 01:11:27;;;;;;;82.03;74.38;;;;;;;17.83;67.37;98576.69;5115217;28;20024;-44
2023/05/30 01:14:10;;;;;;;70.95;64.72;;;;;;;17.78;67.33;98572.09;5097068;28;20491;-44
2023/05/30 01:16:44;;;;;;;59.55;54.55;;;;;;;17.84;67.22;98570.31;5097021;28;20036;-47
2023/05/30 01:19:47;;;;;;;54.00;49.38;;;;;;;17.87;66.70;98574.34;5096969;28;20031;-47
2023/05/30 01:22:34;;;;;;;29.98;26.95;;;;;;;17.83;66.79;98574.06;5107521;28;20088;-47
2023/05/30 01:25:25;;;;;;;33.33;30.45;;;;;;;17.87;66.73;98585.78;5115182;28;20032;-47
2023/05/30 01:28:10;;;;;;;47.80;43.60;;;;;;;17.82;66.60;98588.34;5096780;28;20081;-47
2023/05/30 01:30:38;;;;;;;55.20;50.30;;;;;;;17.62;66.97;98596.06;5096536;28;20505;-47
2023/05/30 01:33:07;;;;;;;53.80;49.58;;;;;;;17.51;67.81;98600.47;5096562;28;20031;-47
2023/05/30 01:35:33;;;;;;;62.22;56.33;;;;;;;17.57;67.56;98602.13;5096535;28;20034;-47
2023/05/30 01:37:59;;;;;;;62.58;57.58;;;;;;;17.61;67.80;98592.63;5114857;28;20012;-47
2023/05/30 01:40:27;;;;;;;65.40;60.03;;;;;;;17.71;66.79;98599.91;5096490;28;20299;-47
2023/05/30 01:43:06;;;;;;;30.92;27.80;;;;;;;17.74;67.40;98597.53;5113521;28;20140;-47
2023/05/30 01:45:56;;;;;;;23.90;21.02;;;;;;;17.85;66.32;98593.19;5114763;28;20024;-47
2023/05/30 01:48:55;;;;;;;22.08;13.95;;;;;;;17.87;66.08;98577.81;5113430;28;20572;-47
2023/05/30 01:51:33;;;;;;;19.75;11.10;;;;;;;17.84;66.17;98588.91;5088179;28;20118;-47
2023/05/30 01:54:02;;;;;;;11.77;6.47;;;;;;;17.91;66.00;98586.06;5114596;28;20023;-47
2023/05/30 01:56:30;;;;;;;8.82;5.63;;;;;;;17.95;65.58;98587.97;5113173;28;20027;-47
2023/05/30 01:58:56;;;;;;;11.05;5.03;;;;;;;17.99;65.91;98582.97;5079255;28;20039;-47
2023/05/30 02:01:26;;;;;;;9.05;5.82;;;;;;;17.94;65.03;98585.56;5096101;28;20551;-47
2023/05/30 02:03:52;;;;;;;8.80;5.22;;;;;;;17.74;65.41;98589.56;5096068;28;20024;-47
2023/05/30 02:06:17;;;;;;;17.80;6.22;;;;;;;17.53;66.51;98593.06;5113005;28;20504;-47
2023/05/30 02:08:43;;;;;;;16.48;6.20;;;;;;;17.43;66.80;98585.00;5112945;28;20015;-46
2023/05/30 02:11:09;;;;;;;11.48;6.97;;;;;;;17.37;67.42;98590.22;5114126;28;20023;-47
2023/05/30 02:13:35;;;;;;;12.98;7.70;;;;;;;17.43;67.24;98590.28;5112886;28;20031;-47
2023/05/30 02:16:00;;;;;;;16.40;5.55;;;;;;;17.48;67.02;98587.69;5114348;28;20393;-47
2023/05/30 02:18:27;;;;;;;17.65;5.93;;;;;;;17.45;66.64;98589.00;5114082;28;20490;-47
2023/05/30 02:20:54;;;;;;;16.15;8.40;;;;;;;17.41;66.89;98595.06;5079244;28;20026;-47
2023/05/30 02:23:20;;;;;;;36.28;32.38;;;;;;;17.39;67.51;98589.19;5112674;28;20107;-47
2023/05/30 02:25:46;;;;;;;15.90;13.95;;;;;;;17.35;66.99;98599.50;5095612;28;20176;-47
2023/05/30 02:28:11;;;;;;;66.30;60.65;;;;;;;17.40;67.24;98594.22;5095543;28;20027;-47
2023/05/30 02:30:37;;;;;;;42.25;38.63;;;;;;;17.41;67.17;98600.34;5095205;28;20051;-47
2023/05/30 02:33:03;;;;;;;61.92;55.47;;;;;;;17.39;66.90;98599.81;5113803;28;20535;-47
2023/05/30 02:35:29;;;;;;;42.85;39.45;;;;;;;17.23;66.99;98596.94;5095331;28;20024;-47
2023/05/30 02:37:55;;;;;;;46.72;42.55;;;;;;;17.02;67.70;98601.16;5095404;28;20051;-47
2023/05/30 02:40:21;;;;;;;68.68;62.47;;;;;;;16.86;68.40;98594.03;5095300;28;20024;-47
2023/05/30 02:42:47;;;;;;;73.95;66.75;;;;;;;16.68;68.78;98595.91;5095292;28;20024;-47
2023/05/30 02:45:12;;;;;;;46.63;42.85;;;;;;;16.67;68.87;98598.78;5095141;28;20058;-47
2023/05/30 02:47:39;;;;;;;48.03;44.08;;;;;;;16.64;69.43;98599.25;5113476;28;20020;-47
2023/05/30 02:50:06;;;;;;;43.80;39.95;;;;;;;16.60;69.68;98598.94;5095284;28;20031;-47
2023/05/30 02:52:32;;;;;;;17.98;14.32;;;;;;;16.54;69.60;98597.25;5113336;28;20024;-47
2023/05/30 02:54:57;;;;;;;15.52;9.85;;;;;;;16.67;70.49;98604.09;5112937;28;20020;-47
2023/05/30 02:57:23;;;;;;;16.05;8.02;;;;;;;16.66;69.79;98599.81;5111919;28;20039;-47
2023/05/30 02:59:49;;;;;;;15.68;10.63;;;;;;;16.64;69.60;98605.38;5094989;28;20069;-47
2023/05/30 03:02:15;;;;;;;16.77;13.27;;;;;;;16.56;69.37;98603.94;5113395;28;20039;-47
2023/05/30 03:04:45;;;;;;;9.73;6.97;;;;;;;16.52;69.75;98613.41;5094838;28;20059;-47
2023/05/30 03:07:17;;;;;;;10.10;8.02;;;;;;;16.56;69.97;98606.56;5094880;28;20396;-47
2023/05/30 03:09:44;;;;;;;23.25;15.85;;;;;;;16.68;69.83;98610.97;5113039;28;20070;-47
2023/05/30 03:12:09;;;;;;;15.10;7.82;;;;;;;16.72;69.69;98617.38;5094969;28;20023;-47
2023/05/30 03:14:35;;;;;;;12.15;6.55;;;;;;;16.71;69.73;98619.25;5111669;28;20088;-46
2023/05/30 03:17:02;;;;;;;9.60;8.35;;;;;;;16.72;69.57;98617.38;5111599;28;20051;-46
2023/05/30 03:19:29;;;;;;;31.77;28.48;;;;;;;16.69;69.42;98629.28;5094610;28;20019;-46
2023/05/30 03:21:56;;;;;;;41.50;37.30;;;;;;;16.61;69.38;98618.28;5094621;28;20024;-46
2023/05/30 03:24:22;;;;;;;15.18;9.57;;;;;;;16.62;69.68;98622.53;5094551;28;20070;-46
2023/05/30 03:26:49;;;;;;;10.32;6.63;;;;;;;16.61;69.28;98621.75;5112709;28;20016;-47
2023/05/30 03:29:15;;;;;;;35.15;31.98;;;;;;;16.47;69.64;98618.59;5094693;28;20031;-46
2023/05/30 03:31:43;;;;;;;23.02;15.90;;;;;;;16.39;69.96;98632.25;5112283;28;20044;-47
2023/05/30 03:34:09;;;;;;;16.77;11.02;;;;;;;16.33;70.18;98627.91;5112698;28;20031;-46
2023/05/30 03:36:35;;;;;;;24.67;19.05;;;;;;;16.35;70.13;98631.13;5094296;28;20034;-46
2023/05/30 03:39:01;;;;;;;20.92;18.83;;;;;;;16.28;70.36;98628.63;5112671;28;20050;-47
2023/05/30 03:41:27;;;;;;;71.75;65.80;;;;;;;16.22;70.43;98629.59;5112495;28;20074;-46
2023/05/30 03:43:52;;;;;;;19.15;11.73;;;;;;;16.32;70.68;98628.97;5094340;28;20035;-47
2023/05/30 03:46:20;;;;;;;7.30;6.13;;;;;;;16.37;70.02;98621.88;5077390;28;20023;-46
2023/05/30 03:48:46;;;;;;;14.05;12.02;;;;;;;16.31;70.10;98614.91;5112453;28;20039;-46
2023/05/30 03:51:12;;;;;;;9.15;6.18;;;;;;;16.26;70.00;98625.41;5094193;28;20499;-47
2023/05/30 03:53:38;;;;;;;23.65;18.58;;;;;;;16.16;70.41;98609.34;5112427;28;20072;-47
2023/05/30 03:56:05;;;;;;;16.13;11.40;;;;;;;16.33;71.05;98619.97;5112309;28;20027;-47
2023/05/30 03:58:31;;;;;;;17.42;11.48;;;;;;;16.31;70.86;98622.84;5112209;28;20023;-46
2023/05/30 04:01:00;;;;;;;12.27;10.55;;;;;;;16.37;70.22;98615.78;5112307;28;20047;-46
2023/05/30 04:03:28;;;;;;;23.88;21.88;;;;;;;16.28;69.78;98618.03;5112200;28;20028;-46
2023/05/30 04:05:55;;;;;;;21.38;13.88;;;;;;;16.30;70.36;98623.09;5111537;28;20566;-46
2023/05/30 04:08:25;;;;;;;32.00;29.00;;;;;;;16.35;70.27;98623.16;5112148;28;20107;-46
2023/05/30 04:10:51;;;;;;;36.22;30.30;;;;;;;16.48;70.37;98625.53;5093887;28;20016;-47
2023/05/30 04:13:17;;;;;;;37.88;33.80;;;;;;;16.68;70.04;98617.09;5110738;28;20134;-46
2023/05/30 04:15:43;;;;;;;26.65;23.88;;;;;;;16.78;69.22;98619.91;5112138;28;20051;-46
2023/05/30 04:18:08;;;;;;;18.38;16.20;;;;;;;16.82;68.97;98617.59;5112147;28;20023;-47
2023/05/30 04:20:34;;;;;;;32.25;29.10;;;;;;;16.73;68.00;98621.66;5093823;28;20458;-47
2023/05/30 04:23:00;;;;;;;65.95;60.40;;;;;;;16.47;68.49;98631.06;5093797;28;20493;-47
2023/05/30 04:25:25;;;;;;;20.40;18.50;;;;;;;16.46;69.38;98632.09;5093710;28;20111;-47
2023/05/30 04:27:51;;;;;;;23.30;19.10;;;;;;;16.71;69.14;98631.69;5076998;28;20027;-47
2023/05/30 04:30:17;;;;;;;11.20;9.57;;;;;;;17.17;67.26;98629.75;5111741;28;20446;-48
2023/05/30 04:32:45;;;;;;;14.85;9.50;;;;;;;17.44;65.65;98627.16;5111992;28;20114;-47
2023/05/30 04:35:13;;;;;;;20.65;7.40;;;;;;;17.70;65.54;98636.25;5111927;28;20012;-47
2023/05/30 04:37:43;;;;;;;21.15;7.35;;;;;;;18.26;64.19;98638.72;5111966;28;20028;-47
2023/05/30 04:40:12;;;;;;;19.23;8.00;;;;;;;18.48;62.98;98635.19;5111887;28;20031;-47
2023/05/30 04:42:41;;;;;;;12.95;7.82;;;;;;;18.67;62.23;98635.59;5093866;28;20058;-47
2023/05/30 04:45:08;;;;;;;21.20;7.20;;;;;;;19.03;61.96;98639.34;5093765;28;20151;-47
2023/05/30 04:47:34;;;;;;;20.38;10.73;;;;;;;19.39;61.31;98644.06;5111841;28;20023;-47
2023/05/30 04:50:01;;;;;;;11.98;6.07;;;;;;;19.84;59.00;98638.16;5112097;28;20421;-47
2023/05/30 04:52:27;;;;;;;11.52;6.95;;;;;;;19.64;57.72;98644.19;5111695;28;20035;-47
2023/05/30 04:54:53;;;;;;;10.00;5.05;;;;;;;19.62;58.77;98650.81;5110506;28;20546;-47
2023/05/30 04:57:20;;;;;;;15.80;5.85;;;;;;;20.17;57.16;98643.31;5111744;28;20024;-47
2023/05/30 04:59:46;;;;;;;16.05;11.98;;;;;;;21.02;54.53;98651.59;5093508;28;20059;-47
2023/05/30 05:02:12;;;;;;;9.50;5.28;;;;;;;21.62;52.84;98649.03;5093437;28;20055;-47
2023/05/30 05:04:38;;;;;;;13.10;8.38;;;;;;;22.14;51.10;98641.56;5111720;28;20028;-47
2023/05/30 05:07:04;;;;;;;10.55;5.50;;;;;;;22.69;49.33;98641.44;5110403;28;20019;-47
2023/05/30 05:09:30;;;;;;;7.47;4.43;;;;;;;23.06;47.87;98642.72;5111662;28;20034;-44
2023/05/30 05:11:56;;;;;;;13.60;5.55;;;;;;;23.47;46.58;98644.97;5093421;28;20561;-44
2023/05/30 05:14:22;;;;;;;18.77;6.95;;;;;;;24.22;46.01;98651.53;5110372;28;20020;-44
2023/05/30 05:16:49;;;;;;;19.90;5.45;;;;;;;24.80;44.05;98653.84;5111534;28;20080;-44
2023/05/30 05:19:14;;;;;;;16.65;7.25;;;;;;;24.79;43.51;98654.13;5096751;28;20099;-44
2023/05/30 05:21:40;;;;;;;23.33;8.50;;;;;;;25.02;43.32;98649.72;5113950;28;20127;-44
2023/05/30 05:24:07;;;;;;;14.48;5.22;;;;;;;24.86;43.07;98665.28;5096837;28;20058;-45
2023/05/30 05:26:33;;;;;;;25.05;7.20;;;;;;;25.30;42.68;98667.47;5113787;28;20031;-45
2023/05/30 05:29:00;;;;;;;11.90;6.05;;;;;;;25.80;41.16;98661.38;5115379;28;20028;-45
2023/05/30 05:31:26;;;;;;;16.92;5.65;;;;;;;26.02;40.86;98671.44;5114765;28;20044;-45
2023/05/30 05:33:51;;;;;;;13.88;6.50;;;;;;;26.33;39.62;98662.66;5114980;28;20031;-45
2023/05/30 05:36:18;;;;;;;18.70;9.00;;;;;;;26.13;40.00;98669.31;5114886;28;20060;-45
2023/05/30 05:38:44;;;;;;;16.00;7.45;;;;;;;26.19;39.96;98668.09;5114959;28;20047;-45
2023/05/30 05:41:10;;;;;;;21.23;10.15;;;;;;;26.26;39.48;98673.84;5114855;28;20028;-45
2023/05/30 05:43:36;;;;;;;13.20;7.95;;;;;;;26.16;39.64;98674.09;5114758;28;20031;-45
2023/05/30 05:46:02;;;;;;;13.02;7.95;;;;;;;26.37;39.74;98676.31;5114731;28;20520;-45
2023/05/30 05:48:28;;;;;;;18.58;8.90;;;;;;;27.15;38.33;98666.03;5096361;28;20024;-45
2023/05/30 05:50:53;;;;;;;9.98;4.38;;;;;;;28.01;36.72;98659.34;5096352;28;20034;-45
2023/05/30 05:53:20;;;;;;;18.08;6.15;;;;;;;28.63;35.75;98663.66;5096152;28;20071;-45
2023/05/30 05:55:45;;;;;;;22.70;6.30;;;;;;;29.17;35.05;98662.41;5114403;28;20106;-45
2023/05/30 05:58:13;;;;;;;28.30;6.88;;;;;;;29.96;34.46;98662.78;5113465;28;20157;-45
2023/05/30 06:00:39;;;;;;;52.85;7.68;;;;;;;30.34;33.47;98661.88;5096400;28;20020;-45
2023/05/30 06:03:04;;;;;;;34.33;6.45;;;;;;;30.44;33.51;98662.25;5114394;28;20046;-45
2023/05/30 06:05:30;;;;;;;15.20;5.13;;;;;;;31.23;31.85;98667.66;5112971;28;20023;-45
2023/05/30 06:07:57;;;;;;;36.20;7.18;;;;;;;31.72;31.29;98663.38;5096066;28;20552;-45
2023/05/30 06:10:24;;;;;;;30.48;6.90;;;;;;;32.51;30.18;98671.06;5114275;28;20022;-45
2023/05/30 06:12:50;;;;;;;33.35;7.28;;;;;;;33.34;28.65;98660.41;5095798;28;20034;-45
2023/05/30 06:15:16;;;;;;;115.00;13.25;;;;;;;33.86;28.47;98672.09;5112815;28;20020;-45
2023/05/30 06:17:41;;;;;;;52.20;7.75;;;;;;;33.35;29.11;98673.66;5095774;28;20035;-45
2023/05/30 06:20:08;;;;;;;27.75;8.13;;;;;;;33.53;28.93;98676.00;5114080;28;20026;-45
2023/05/30 06:22:33;;;;;;;43.50;7.70;;;;;;;33.70;28.66;98678.34;5114061;28;20028;-45
2023/05/30 06:24:59;;;;;;;22.27;7.03;;;;;;;33.91;27.66;98675.31;5114052;28;20083;-45
2023/05/30 06:27:25;;;;;;;21.83;6.30;;;;;;;33.92;27.95;98676.09;5113932;28;20095;-45
2023/05/30 06:29:52;;;;;;;43.17;7.05;;;;;;;33.93;27.54;98677.69;5113064;28;20043;-45
2023/05/30 06:32:18;;;;;;;52.53;7.78;;;;;;;33.88;27.65;98677.97;5113535;28;20092;-45
2023/05/30 06:34:47;;;;;;;39.80;6.50;;;;;;;34.02;26.83;98668.16;5113680;28;20015;-45
2023/05/30 06:37:14;;;;;;;28.40;5.55;;;;;;;34.20;26.57;98676.72;5113710;28;20015;-45
2023/05/30 06:39:39;;;;;;;28.70;6.40;;;;;;;34.61;26.48;98668.97;5113694;28;20072;-45
2023/05/30 06:42:09;;;;;;;20.35;5.22;;;;;;;35.04;25.55;98670.91;5112360;28;20473;-45
2023/05/30 06:44:35;;;;;;;38.67;5.85;;;;;;;35.15;25.40;98672.66;5112327;28;20024;-45
2023/05/30 06:47:01;;;;;;;51.15;6.82;;;;;;;35.76;25.04;98659.94;5112175;28;20031;-45
2023/05/30 06:49:27;;;;;;;28.10;6.60;;;;;;;36.40;24.78;98664.63;5112184;28;20050;-46
2023/05/30 06:51:52;;;;;;;25.85;6.03;;;;;;;36.99;22.96;98667.59;5113460;28;20020;-45
2023/05/30 06:54:18;;;;;;;33.78;7.25;;;;;;;37.73;23.00;98676.75;5078302;28;20030;-45
2023/05/30 06:56:44;;;;;;;45.60;6.57;;;;;;;37.82;22.64;98674.47;5112022;28;20023;-45
2023/05/30 06:59:10;;;;;;;28.38;5.72;;;;;;;38.16;22.16;98677.78;5113298;28;20106;-45
2023/05/30 07:01:36;;;;;;;28.27;6.45;;;;;;;38.44;21.95;98676.28;5095091;28;20077;-45
2023/05/30 07:04:01;;;;;;;54.17;8.45;;;;;;;38.41;21.84;98681.75;5113156;28;20058;-46
2023/05/30 07:06:27;;;;;;;22.30;5.22;;;;;;;38.19;21.61;98681.69;5113054;28;20124;-45
2023/05/30 07:08:53;;;;;;;27.17;5.95;;;;;;;37.63;22.45;98689.25;5113079;28;20046;-46
2023/05/30 07:11:18;;;;;;;28.65;8.93;;;;;;;37.26;22.92;98681.91;5094845;28;20028;-45
2023/05/30 07:13:44;;;;;;;13.90;4.85;;;;;;;36.49;23.73;98675.28;5113090;28;20034;-45
2023/05/30 07:16:10;;;;;;;18.15;4.28;;;;;;;36.06;24.19;98672.00;5112918;28;20024;-46
2023/05/30 07:18:36;;;;;;;25.48;5.85;;;;;;;35.38;24.60;98674.59;5111654;28;20034;-45
2023/05/30 07:21:01;;;;;;;24.10;7.93;;;;;;;35.48;24.72;98671.22;5112932;28;20031;-45
2023/05/30 07:23:27;;;;;;;37.28;11.32;;;;;;;35.80;24.32;98679.13;5112846;28;20030;-45
2023/05/30 07:25:53;;;;;;;26.38;8.07;;;;;;;35.56;24.46;98670.16;5094546;28;20396;-45
2023/05/30 07:28:20;;;;;;;15.50;6.55;;;;;;;35.05;25.00;98673.22;5111438;28;20081;-45
2023/05/30 07:30:46;;;;;;;23.55;9.20;;;;;;;34.20;26.23;98673.22;5112449;28;20071;-45
2023/05/30 07:33:12;;;;;;;16.02;5.70;;;;;;;33.20;27.94;98674.44;5112693;28;20058;-45
2023/05/30 07:35:37;;;;;;;14.82;5.75;;;;;;;32.78;28.41;98664.03;5094376;28;20580;-45
2023/05/30 07:38:03;;;;;;;29.88;6.57;;;;;;;32.85;28.62;98658.78;5112565;28;20023;-45
2023/05/30 07:40:29;;;;;;;17.30;6.03;;;;;;;33.37;28.00;98665.94;5111180;28;20027;-45
2023/05/30 07:42:55;;;;;;;70.15;10.05;;;;;;;33.68;26.90;98664.31;5111488;28;20477;-45
2023/05/30 07:45:20;;;;;;;20.55;7.70;;;;;;;33.86;27.10;98663.91;5112773;28;20016;-45
2023/05/30 07:47:46;;;;;;;12.77;5.15;;;;;;;34.38;26.29;98662.66;5111158;28;20026;-45
2023/05/30 07:50:12;;;;;;;9.13;5.50;;;;;;;34.92;25.33;98655.50;5112688;28;20050;-45
2023/05/30 07:52:38;;;;;;;19.17;7.82;;;;;;;35.14;24.93;98657.41;5112341;28;20020;-45
2023/05/30 07:55:04;;;;;;;10.90;5.43;;;;;;;35.12;25.12;98658.94;5111007;28;20023;-45
2023/05/30 07:57:31;;;;;;;14.82;6.45;;;;;;;35.03;25.30;98664.63;5094302;28;20019;-45
2023/05/30 07:59:57;;;;;;;20.65;8.35;;;;;;;35.65;24.95;98653.50;5112314;28;20087;-45
2023/05/30 08:02:25;;;;;;;26.25;6.07;;;;;;;36.68;23.67;98641.50;5112191;28;20099;-45
2023/05/30 08:04:52;;;;;;;15.98;6.03;;;;;;;37.64;22.34;98651.66;5094488;28;20073;-45
2023/05/30 08:07:19;;;;;;;21.02;7.20;;;;;;;38.53;21.83;98648.53;5093917;28;20035;-45
2023/05/30 08:09:45;;;;;;;10.52;5.10;;;;;;;38.69;21.27;98648.16;5094127;28;20031;-45
2023/05/30 08:12:20;;;;;;;40.17;9.48;;;;;;;37.76;22.43;98643.13;5093866;28;20073;-46
2023/05/30 08:14:47;;;;;;;17.25;9.65;;;;;;;37.64;23.11;98649.72;5093863;28;20118;-46
2023/05/30 08:17:15;;;;;;;13.85;5.45;;;;;;;37.97;22.58;98650.63;5093754;28;20602;-45
2023/05/30 08:19:42;;;;;;;18.75;6.05;;;;;;;38.58;22.27;98644.59;5112071;28;20026;-48
2023/05/30 08:22:10;;;;;;;29.13;6.85;;;;;;;38.90;21.75;98648.16;5111941;28;20024;-48
2023/05/30 08:24:36;;;;;;;14.15;6.28;;;;;;;38.90;21.32;98642.69;5112025;28;20035;-48
2023/05/30 08:27:03;;;;;;;19.70;5.70;;;;;;;38.63;21.11;98638.75;5111948;28;20390;-49
2023/05/30 08:29:30;;;;;;;21.35;5.63;;;;;;;38.40;21.42;98641.81;5093713;28;20070;-49
2023/05/30 08:31:56;;;;;;;6.95;4.78;;;;;;;38.57;21.57;98641.06;5083499;28;20095;-49
2023/05/30 08:34:24;;;;;;;16.33;5.35;;;;;;;38.58;21.70;98641.84;5091620;28;20406;-48
2023/05/30 08:36:56;;;;;;;9.10;5.20;;;;;;;38.40;21.57;98636.34;5091793;28;20504;-48
2023/05/30 08:39:22;;;;;;;16.45;5.75;;;;;;;38.91;21.73;98629.75;5091536;28;20080;-49
2023/05/30 08:41:48;;;;;;;45.72;10.32;;;;;;;39.85;20.72;98633.91;5091551;28;20093;-48
2023/05/30 08:44:14;;;;;;;17.15;6.13;;;;;;;40.49;19.86;98632.84;5073410;28;20111;-48
2023/05/30 08:46:43;;;;;;;13.27;5.60;;;;;;;40.09;19.48;98632.28;5073343;28;20486;-48
2023/05/30 08:49:13;;;;;;;22.27;7.40;;;;;;;39.46;20.75;98629.34;5091432;28;20028;-48
2023/05/30 08:51:42;;;;;;;36.45;9.05;;;;;;;39.61;20.53;98635.56;5091466;28;20028;-49
2023/05/30 08:54:14;;;;;;;13.05;5.07;;;;;;;39.58;20.33;98625.38;5094881;28;20412;-48
2023/05/30 08:56:46;;;;;;;12.88;5.10;;;;;;;39.97;20.09;98629.19;5077209;28;20122;-48
2023/05/30 08:59:13;;;;;;;18.95;6.05;;;;;;;40.28;19.73;98627.44;5095373;28;20028;-48
2023/05/30 09:01:40;;;;;;;19.55;5.80;;;;;;;40.38;19.26;98634.09;5076982;28;20409;-49
2023/05/30 09:04:08;;;;;;;12.60;6.00;;;;;;;40.41;19.46;98631.34;5076945;28;20066;-49
2023/05/30 09:06:36;;;;;;;15.35;6.18;;;;;;;40.59;19.19;98628.47;5095164;28;20020;-49
2023/05/30 09:09:03;;;;;;;64.13;10.57;;;;;;;41.19;18.50;98633.91;5095021;28;20016;-48
2023/05/30 09:11:29;;;;;;;30.08;8.00;;;;;;;41.69;17.96;98628.66;5095036;28;20414;-49
2023/05/30 09:13:56;;;;;;;15.57;5.95;;;;;;;41.85;17.99;98630.84;5095218;28;20097;-51
2023/05/30 09:16:22;;;;;;;23.50;5.60;;;;;;;41.74;18.00;98626.63;5094965;28;20047;-51
2023/05/30 09:18:48;;;;;;;11.05;4.63;;;;;;;42.06;17.91;98623.53;5076729;28;20108;-51
2023/05/30 09:21:14;;;;;;;32.78;7.38;;;;;;;42.26;17.38;98621.66;5094861;28;20458;-51
2023/05/30 09:23:43;;;;;;;20.17;7.43;;;;;;;42.40;17.26;98622.63;5094880;28;20031;-51
2023/05/30 09:26:14;;;;;;;20.25;8.15;;;;;;;42.99;17.23;98621.38;5076507;28;20074;-51
2023/05/30 09:28:39;;;;;;;21.55;7.63;;;;;;;42.78;16.86;98623.25;5094861;28;20031;-51
2023/05/30 09:31:06;;;;;;;29.67;9.02;;;;;;;41.83;17.86;98621.41;5095632;28;20036;-51
2023/05/30 09:33:53;;;;;;;12.68;5.38;;;;;;;41.04;18.21;98617.50;5115116;28;20107;-51
2023/05/30 09:36:24;;;;;;;14.73;8.80;;;;;;;40.73;18.75;98616.56;5114994;28;20035;-51
2023/05/30 09:38:54;;;;;;;15.75;6.65;;;;;;;41.21;18.14;98615.00;5114954;28;20027;-50
2023/05/30 09:41:21;;;;;;;12.85;5.25;;;;;;;41.70;17.50;98618.44;5114894;28;20605;-50
2023/05/30 09:43:52;;;;;;;14.65;5.95;;;;;;;42.21;17.04;98618.59;5113513;28;20023;-50
2023/05/30 09:46:19;;;;;;;12.00;4.65;;;;;;;42.61;16.64;98622.34;5114720;28;20081;-50
2023/05/30 09:48:45;;;;;;;24.90;8.52;;;;;;;42.70;16.76;98619.84;5114688;28;20546;-51
2023/05/30 09:51:11;;;;;;;22.13;6.45;;;;;;;42.80;16.55;98620.06;5114610;28;20031;-51
2023/05/30 09:53:37;;;;;;;16.02;6.00;;;;;;;42.43;16.99;98619.81;5114637;28;20019;-51
2023/05/30 09:56:04;;;;;;;33.40;10.65;;;;;;;41.89;17.22;98628.03;5114515;28;20020;-51
2023/05/30 09:58:29;;;;;;;30.40;12.30;;;;;;;41.63;17.17;98622.03;5114585;28;20048;-51
2023/05/30 10:00:57;;;;;;;39.28;16.02;;;;;;;41.42;17.28;98614.00;5096277;28;20032;-51
2023/05/30 10:03:43;;;;;;;31.83;11.55;;;;;;;41.49;17.46;98616.66;5095713;28;20027;-51
2023/05/30 10:06:13;;;;;;;22.70;8.98;;;;;;;41.48;17.21;98612.38;5095726;28;20023;-50
2023/05/30 10:08:44;;;;;;;27.45;13.45;;;;;;;41.49;17.06;98609.22;5113081;28;20016;-50
2023/05/30 10:11:11;;;;;;;38.38;15.32;;;;;;;40.84;17.78;98616.50;5096698;28;20027;-50
2023/05/30 10:13:37;;;;;;;20.20;8.85;;;;;;;40.04;18.27;98616.19;5114186;28;20036;-51
2023/05/30 10:16:13;;;;;;;8.52;4.75;;;;;;;39.50;18.38;98619.13;5078938;28;20123;-51
2023/05/30 10:18:52;;;;;;;24.63;6.72;;;;;;;39.33;19.16;98617.19;5079105;28;20031;-51
2023/05/30 10:21:22;;;;;;;12.13;5.40;;;;;;;39.26;19.19;98617.19;5112780;28;20039;-50
2023/05/30 10:23:48;;;;;;;15.98;6.25;;;;;;;39.53;18.99;98612.84;5114170;28;20023;-48
2023/05/30 10:26:16;;;;;;;14.38;6.07;;;;;;;40.15;18.54;98613.38;5095793;28;20059;-48
2023/05/30 10:28:47;;;;;;;12.40;6.78;;;;;;;40.57;18.18;98602.53;5113892;28;20094;-49
2023/05/30 10:31:14;;;;;;;15.75;4.68;;;;;;;40.29;18.06;98618.81;5112139;28;20498;-49
2023/05/30 10:33:48;;;;;;;15.88;5.45;;;;;;;40.10;18.39;98617.31;5110578;28;20412;-49
2023/05/30 10:36:13;;;;;;;16.63;6.38;;;;;;;40.21;18.19;98611.00;5113797;28;20429;-48
2023/05/30 10:38:51;;;;;;;13.93;5.05;;;;;;;40.03;17.80;98617.38;5113805;28;20024;-48
2023/05/30 10:41:32;;;;;;;9.98;6.25;;;;;;;40.53;17.86;98616.31;5113744;28;20404;-49
2023/05/30 10:44:01;;;;;;;8.77;4.70;;;;;;;41.31;17.09;98608.59;5112689;28;20024;-48
2023/05/30 10:46:45;;;;;;;19.70;8.15;;;;;;;41.74;16.62;98610.91;5113602;28;20393;-48
2023/05/30 10:49:18;;;;;;;11.63;4.95;;;;;;;42.05;16.50;98605.41;5113589;28;20023;-48
2023/05/30 10:51:58;;;;;;;;;;;;;;;42.13;16.67;98608.84;5113810;28;20039;-49
2023/05/30 10:57:52;;;;;;;13.35;5.40;;;;;;;41.54;16.62;98598.94;5113747;28;20512;-48
2023/05/30 11:00:25;;;;;;;16.45;6.93;;;;;;;40.92;17.39;98593.22;5113364;28;20405;-48
2023/05/30 11:02:53;;;;;;;20.85;9.50;;;;;;;40.68;17.74;98592.22;5113399;28;20042;-48
2023/05/30 11:05:27;;;;;;;30.92;15.15;;;;;;;40.50;17.97;98600.63;5113212;28;20026;-48
2023/05/30 11:07:53;;;;;;;10.20;7.32;;;;;;;40.38;18.39;98592.84;5113200;28;20055;-48
2023/05/30 11:10:27;;;;;;;9.65;4.72;;;;;;;40.21;18.24;98589.00;5077859;28;20065;-48
2023/05/30 11:13:06;;;;;;;19.35;8.73;;;;;;;40.03;18.27;98589.13;5111740;28;20028;-49
2023/05/30 11:15:36;;;;;;;14.50;6.53;;;;;;;40.02;19.26;98593.03;5112710;28;20390;-48
2023/05/30 11:18:14;;;;;;;16.33;6.65;;;;;;;39.36;19.65;98591.66;5111631;28;20019;-48
2023/05/30 11:20:56;;;;;;;14.40;8.32;;;;;;;39.62;19.87;98573.94;5094686;28;20032;-48
2023/05/30 11:23:24;;;;;;;28.67;9.45;;;;;;;40.09;19.12;98576.50;5112925;28;20118;-48
2023/05/30 11:25:52;;;;;;;24.15;9.18;;;;;;;40.05;19.60;98582.03;5112900;28;20051;-48
2023/05/30 11:28:34;;;;;;;17.40;7.75;;;;;;;40.00;19.58;98584.41;5094677;28;20046;-47